createdAt,value
2022-08-10T00:00:04.074Z,61.99
2022-08-10T00:03:11.096Z,62.06
2022-08-10T00:06:18.236Z,61.96
2022-08-10T00:09:24.932Z,62.34
2022-08-10T00:12:54.553Z,62.60
2022-08-10T00:16:01.485Z,62.67
2022-08-10T00:19:09.949Z,62.54
2022-08-10T00:22:16.926Z,62.61
2022-08-10T00:25:24.146Z,62.82
2022-08-10T00:28:30.408Z,62.32
2022-08-10T00:31:58.615Z,62.36
2022-08-10T00:35:08.229Z,62.75
2022-08-10T00:38:15.560Z,62.91
2022-08-10T00:41:21.683Z,63.34
2022-08-10T00:44:31.085Z,63.37
2022-08-10T00:47:40.045Z,63.38
2022-08-10T00:50:47.550Z,63.96
2022-08-10T00:53:53.801Z,63.54
2022-08-10T00:57:17.384Z,63.93
2022-08-10T01:00:24.603Z,63.68
2022-08-10T01:04:36.687Z,63.90
2022-08-10T01:07:15.766Z,63.98
2022-08-10T01:10:32.202Z,64.46
2022-08-10T01:13:44.452Z,64.06
2022-08-10T01:16:55.414Z,64.43
2022-08-10T01:20:09.966Z,64.23
2022-08-10T01:23:57.124Z,64.69
2022-08-10T01:27:19.101Z,64.60
2022-08-10T01:30:37.997Z,64.88
2022-08-10T01:33:59.163Z,65.01
2022-08-10T01:37:16.814Z,65.16
2022-08-10T01:40:28.674Z,65.13
2022-08-10T01:43:38.530Z,65.27
2022-08-10T01:46:56.642Z,65.60
2022-08-10T01:50:05.042Z,65.44
2022-08-10T01:53:20.575Z,65.52
2022-08-10T01:56:29.444Z,65.88
2022-08-10T01:59:38.616Z,65.91
2022-08-10T02:02:50.376Z,66.12
2022-08-10T02:05:59.332Z,66.09
2022-08-10T02:09:09.300Z,66.01
2022-08-10T02:12:19.112Z,66.52
2022-08-10T02:15:28.167Z,66.56
2022-08-10T02:18:39.438Z,66.62
2022-08-10T02:22:37.598Z,66.85
2022-08-10T02:25:41.099Z,66.84
2022-08-10T02:28:45.916Z,67.20
2022-08-10T02:31:52.436Z,66.89
2022-08-10T02:35:06.286Z,67.04
2022-08-10T02:38:14.580Z,67.04
2022-08-10T02:42:18.457Z,66.97
2022-08-10T02:45:20.482Z,67.40
2022-08-10T02:48:32.994Z,67.23
2022-08-10T02:52:06.855Z,67.44
2022-08-10T02:55:27.260Z,67.58
2022-08-10T02:58:48.266Z,67.74
2022-08-10T03:01:59.483Z,68.03
2022-08-10T03:05:12.701Z,68.23
2022-08-10T03:08:25.774Z,68.31
2022-08-10T03:12:35.594Z,68.44
2022-08-10T03:15:03.362Z,68.46
2022-08-10T03:18:10.407Z,68.46
2022-08-10T03:21:20.460Z,68.68
2022-08-10T03:24:33.045Z,68.64
2022-08-10T03:27:41.522Z,68.55
2022-08-10T03:30:48.079Z,68.46
2022-08-10T03:33:56.572Z,68.93
2022-08-10T03:37:03.147Z,68.89
2022-08-10T03:40:14.241Z,69.30
2022-08-10T03:43:23.284Z,69.45
2022-08-10T03:46:32.854Z,69.43
2022-08-10T03:49:41.829Z,69.56
2022-08-10T03:52:49.168Z,69.69
2022-08-10T03:56:29.020Z,69.83
2022-08-10T03:59:26.868Z,70.05
2022-08-10T04:02:44.804Z,70.37
2022-08-10T04:05:55.522Z,70.01
2022-08-10T04:09:03.470Z,70.06
2022-08-10T04:12:13.852Z,69.90
2022-08-10T04:15:20.033Z,69.73
2022-08-10T04:18:27.287Z,70.14
2022-08-10T04:21:38.916Z,70.31
2022-08-10T04:24:50.247Z,70.36
2022-08-10T04:27:59.860Z,70.43
2022-08-10T04:31:11.932Z,70.10
2022-08-10T04:34:20.798Z,69.93
2022-08-10T04:37:29.107Z,69.64
2022-08-10T04:40:35.340Z,69.78
2022-08-10T04:43:45.848Z,69.70
2022-08-10T04:46:55.711Z,69.29
2022-08-10T04:50:08.462Z,68.87
2022-08-10T04:53:16.233Z,68.93
2022-08-10T04:56:31.363Z,68.88
2022-08-10T04:59:40.985Z,68.86
2022-08-10T05:02:48.238Z,69.06
2022-08-10T05:05:54.319Z,69.41
2022-08-10T05:09:03.071Z,69.42
2022-08-10T05:12:12.288Z,69.56
2022-08-10T05:15:24.133Z,69.10
2022-08-10T05:18:30.278Z,69.22
2022-08-10T05:22:03.208Z,68.46
2022-08-10T05:25:03.732Z,68.30
2022-08-10T05:28:11.200Z,67.76
2022-08-10T05:31:23.474Z,67.74
2022-08-10T05:34:31.264Z,67.22
2022-08-10T05:38:09.149Z,67.32
2022-08-10T05:41:06.592Z,66.66
2022-08-10T05:44:13.099Z,66.21
2022-08-10T05:47:22.950Z,66.07
2022-08-10T05:50:31.309Z,66.10
2022-08-10T05:54:03.063Z,66.13
2022-08-10T05:57:06.481Z,65.83
2022-08-10T06:00:36.956Z,65.45
2022-08-10T06:03:53.897Z,64.96
2022-08-10T06:07:03.129Z,64.82
2022-08-10T06:10:12.440Z,64.60
2022-08-10T06:13:59.459Z,64.47
2022-08-10T06:17:04.372Z,64.28
2022-08-10T06:20:15.314Z,64.23
2022-08-10T06:23:22.413Z,63.87
2022-08-10T06:26:29.553Z,63.67
2022-08-10T06:29:37.306Z,63.29
2022-08-10T06:32:45.623Z,63.02
2022-08-10T06:35:58.429Z,62.42
2022-08-10T06:39:31.857Z,61.99
2022-08-10T06:42:35.798Z,62.00
2022-08-10T06:46:07.592Z,61.46
2022-08-10T06:49:15.232Z,61.19
2022-08-10T06:52:26.574Z,60.88
2022-08-10T06:55:49.764Z,60.53
2022-08-10T06:59:01.024Z,60.32
2022-08-10T07:02:11.022Z,60.12
2022-08-10T07:05:23.445Z,59.96
2022-08-10T07:08:37.071Z,60.02
2022-08-10T07:11:47.085Z,60.03
2022-08-10T07:14:54.901Z,59.81
2022-08-10T07:18:04.350Z,59.68
2022-08-10T07:21:12.509Z,58.94
2022-08-10T07:24:23.654Z,58.80
2022-08-10T07:27:58.119Z,58.29
2022-08-10T07:31:00.086Z,58.16
2022-08-10T07:34:09.785Z,57.61
2022-08-10T07:37:19.336Z,58.11
2022-08-10T07:40:28.858Z,57.55
2022-08-10T07:43:39.224Z,57.64
2022-08-10T07:46:50.696Z,56.87
2022-08-10T07:50:00.180Z,56.36
2022-08-10T07:53:10.577Z,56.10
2022-08-10T07:56:47.252Z,55.04
2022-08-10T07:59:51.669Z,53.79
2022-08-10T08:03:00.241Z,53.98
2022-08-10T08:06:12.036Z,53.37
2022-08-10T08:09:21.845Z,52.45
2022-08-10T08:12:36.776Z,52.75
2022-08-10T08:16:19.202Z,53.02
2022-08-10T08:19:37.145Z,52.39
2022-08-10T08:24:15.035Z,51.35
2022-08-10T08:26:10.001Z,51.44
2022-08-10T08:29:22.601Z,52.24
2022-08-10T08:32:30.757Z,51.82
2022-08-10T08:35:38.204Z,51.31
2022-08-10T08:38:45.628Z,51.09
2022-08-10T08:42:07.647Z,50.42
2022-08-10T08:45:30.043Z,50.73
2022-08-10T08:49:00.104Z,51.57
2022-08-10T08:52:22.258Z,51.29
2022-08-10T08:56:03.842Z,50.65
2022-08-10T08:59:28.462Z,50.37
2022-08-10T09:02:55.080Z,50.10
2022-08-10T09:06:18.614Z,50.32
2022-08-10T09:09:51.263Z,49.36
2022-08-10T09:13:06.157Z,49.16
2022-08-10T09:16:26.375Z,48.60
2022-08-10T09:19:44.709Z,49.62
2022-08-10T09:23:00.725Z,48.65
2022-08-10T09:26:15.780Z,49.09
2022-08-10T09:29:30.713Z,48.57
2022-08-10T09:36:19.688Z,48.70
2022-08-10T09:36:33.043Z,47.91
2022-08-10T09:40:12.661Z,48.40
2022-08-10T09:43:26.041Z,47.59
2022-08-10T09:46:45.597Z,47.46
2022-08-10T09:50:10.679Z,47.90
2022-08-10T09:53:25.196Z,47.75
2022-08-10T09:56:39.517Z,47.65
2022-08-10T10:00:01.367Z,48.07
2022-08-10T10:03:21.527Z,46.74
2022-08-10T10:06:38.971Z,47.47
2022-08-10T10:09:58.460Z,47.05
2022-08-10T10:13:10.937Z,47.42
2022-08-10T10:16:56.635Z,46.38
2022-08-10T10:20:12.804Z,46.67
2022-08-10T10:23:29.699Z,46.32
2022-08-10T10:26:45.898Z,46.10
2022-08-10T10:29:59.500Z,45.85
2022-08-10T10:33:15.887Z,46.36
2022-08-10T10:36:32.801Z,47.06
2022-08-10T10:39:43.884Z,47.04
2022-08-10T10:43:06.423Z,46.29
2022-08-10T10:46:26.182Z,46.37
2022-08-10T10:49:47.378Z,46.68
2022-08-10T10:53:06.496Z,46.59
2022-08-10T10:56:21.457Z,45.44
2022-08-10T10:59:54.985Z,45.67
2022-08-10T11:03:16.953Z,43.33
2022-08-10T11:06:40.173Z,44.44
2022-08-10T11:10:03.924Z,43.47
2022-08-10T11:14:26.908Z,43.86
2022-08-10T11:17:12.627Z,42.57
2022-08-10T11:20:25.654Z,43.05
2022-08-10T11:23:40.240Z,42.84
2022-08-10T11:26:52.157Z,43.75
2022-08-10T11:30:07.021Z,44.30
2022-08-10T11:33:32.634Z,44.03
2022-08-10T11:36:51.139Z,43.19
2022-08-10T11:40:03.850Z,43.46
2022-08-10T11:43:21.162Z,43.58
2022-08-10T11:46:33.965Z,43.87
2022-08-10T11:49:56.529Z,43.65
2022-08-10T11:53:11.757Z,42.16
2022-08-10T11:56:28.897Z,41.79
2022-08-10T11:59:58.229Z,43.02
2022-08-10T12:03:10.689Z,42.71
2022-08-10T12:06:53.774Z,43.46
2022-08-10T12:10:08.933Z,43.60
2022-08-10T12:13:24.816Z,42.48
2022-08-10T12:16:33.222Z,42.06
2022-08-10T12:20:01.358Z,42.26
2022-08-10T12:23:20.531Z,42.35
2022-08-10T12:26:31.467Z,42.21
2022-08-10T12:29:46.186Z,42.42
2022-08-10T12:32:57.979Z,42.96
2022-08-10T12:36:18.441Z,42.73
2022-08-10T12:39:31.192Z,42.48
2022-08-10T12:42:45.862Z,42.01
2022-08-10T12:46:19.051Z,42.82
2022-08-10T12:49:33.663Z,42.56
2022-08-10T12:52:45.706Z,41.55
2022-08-10T12:55:55.864Z,40.40
2022-08-10T12:59:03.835Z,40.31
2022-08-10T13:02:17.585Z,41.07
2022-08-10T13:05:24.808Z,42.28
2022-08-10T13:08:51.736Z,41.46
2022-08-10T13:12:44.944Z,39.80
2022-08-10T13:15:48.475Z,40.47
2022-08-10T13:18:58.088Z,40.46
2022-08-10T13:22:07.116Z,40.38
2022-08-10T13:25:14.660Z,40.27
2022-08-10T13:28:36.602Z,40.97
2022-08-10T13:32:09.191Z,39.91
2022-08-10T13:35:17.870Z,40.78
2022-08-10T13:38:25.543Z,40.54
2022-08-10T13:41:35.757Z,40.48
2022-08-10T13:44:47.083Z,38.77
2022-08-10T13:47:57.603Z,38.68
2022-08-10T13:51:06.601Z,38.44
2022-08-10T13:54:15.842Z,38.46
2022-08-10T13:57:24.128Z,38.13
2022-08-10T14:00:39.131Z,38.88
2022-08-10T14:03:47.399Z,38.82
2022-08-10T14:06:57.302Z,39.05
2022-08-10T14:10:08.062Z,39.45
2022-08-10T14:13:17.909Z,39.54
2022-08-10T14:16:27.736Z,39.83
2022-08-10T14:19:43.466Z,39.67
2022-08-10T14:22:50.016Z,39.87
2022-08-10T14:26:07.999Z,39.31
2022-08-10T14:29:19.595Z,39.47
2022-08-10T14:32:33.835Z,39.40
2022-08-10T14:36:20.655Z,38.85
2022-08-10T14:39:15.137Z,38.91
2022-08-10T14:42:28.636Z,36.13
2022-08-10T14:45:37.869Z,36.93
2022-08-10T14:48:49.985Z,37.53
2022-08-10T14:52:04.487Z,37.84
2022-08-10T14:55:19.414Z,37.74
2022-08-10T14:58:29.226Z,38.91
2022-08-10T15:02:38.788Z,38.42
2022-08-10T15:05:09.130Z,37.93
2022-08-10T15:08:17.664Z,38.19
2022-08-10T15:12:11.848Z,38.28
2022-08-10T15:14:53.330Z,37.95
2022-08-10T15:18:03.054Z,37.43
2022-08-10T15:21:17.055Z,37.64
2022-08-10T15:24:37.665Z,38.03
2022-08-10T15:27:54.677Z,37.73
2022-08-10T15:31:03.557Z,37.72
2022-08-10T15:34:28.856Z,38.17
2022-08-10T15:37:41.980Z,36.79
2022-08-10T15:40:54.317Z,35.97
2022-08-10T15:44:01.191Z,35.30
2022-08-10T15:47:12.121Z,35.92
2022-08-10T15:50:28.401Z,36.43
2022-08-10T15:53:49.825Z,35.25
2022-08-10T15:57:03.566Z,34.95
2022-08-10T16:00:13.268Z,33.21
2022-08-10T16:03:26.496Z,33.72
2022-08-10T16:06:37.095Z,32.69
2022-08-10T16:10:23.197Z,32.61
2022-08-10T16:13:50.474Z,32.05
2022-08-10T16:16:54.269Z,31.25
2022-08-10T16:20:03.594Z,30.93
2022-08-10T16:23:14.439Z,30.28
2022-08-10T16:26:30.983Z,31.77
2022-08-10T16:29:54.492Z,31.53
2022-08-10T16:33:05.516Z,31.16
2022-08-10T16:36:19.578Z,30.56
2022-08-10T16:39:58.916Z,31.66
2022-08-10T16:43:00.791Z,31.03
2022-08-10T16:46:13.273Z,31.42
2022-08-10T16:49:22.798Z,31.35
2022-08-10T16:52:30.936Z,30.09
2022-08-10T16:55:49.836Z,30.83
2022-08-10T16:59:01.061Z,30.55
2022-08-10T17:02:10.427Z,31.83
2022-08-10T17:06:01.540Z,32.27
2022-08-10T17:08:52.791Z,32.48
2022-08-10T17:12:01.376Z,33.31
2022-08-10T17:15:12.967Z,33.20
2022-08-10T17:18:27.801Z,33.45
2022-08-10T17:21:51.051Z,33.71
2022-08-10T17:25:03.284Z,34.39
2022-08-10T17:28:12.030Z,34.71
2022-08-10T17:31:53.509Z,34.85
2022-08-10T17:35:01.278Z,35.41
2022-08-10T17:38:12.305Z,35.83
2022-08-10T17:41:24.578Z,36.20
2022-08-10T17:44:32.402Z,36.51
2022-08-10T17:47:50.358Z,36.22
2022-08-10T17:50:57.978Z,36.91
2022-08-10T17:54:10.602Z,36.91
2022-08-10T17:57:21.521Z,37.58
2022-08-10T18:00:29.098Z,37.62
2022-08-10T18:03:45.247Z,37.85
2022-08-10T18:06:56.538Z,38.15
2022-08-10T18:10:04.371Z,38.38
2022-08-10T18:13:12.613Z,38.68
2022-08-10T18:16:27.071Z,38.98
2022-08-10T18:19:41.345Z,39.10
2022-08-10T18:22:49.534Z,39.52
2022-08-10T18:26:03.137Z,39.59
2022-08-10T18:29:13.527Z,39.85
2022-08-10T18:32:27.994Z,40.30
2022-08-10T18:35:37.565Z,40.28
2022-08-10T18:38:49.699Z,40.77
2022-08-10T18:42:05.583Z,40.78
2022-08-10T18:45:15.531Z,41.15
2022-08-10T18:48:36.458Z,41.17
2022-08-10T18:51:49.433Z,41.11
2022-08-10T18:55:03.061Z,41.32
2022-08-10T18:58:36.672Z,41.81
2022-08-10T19:02:10.175Z,41.79
2022-08-10T19:05:32.171Z,41.82
2022-08-10T19:08:57.942Z,42.57
2022-08-10T19:12:30.459Z,42.55
2022-08-10T19:15:45.842Z,42.23
2022-08-10T19:19:22.407Z,42.92
2022-08-10T19:22:32.183Z,42.44
2022-08-10T19:26:42.686Z,43.24
2022-08-10T19:30:08.086Z,43.35
2022-08-10T19:33:18.202Z,43.25
2022-08-10T19:36:32.776Z,43.54
2022-08-10T19:39:51.075Z,43.81
2022-08-10T19:43:09.203Z,44.01
2022-08-10T19:46:28.264Z,43.86
2022-08-10T19:49:42.606Z,44.10
2022-08-10T19:53:06.157Z,44.29
2022-08-10T19:56:34.017Z,44.69
2022-08-10T20:00:15.741Z,44.79
2022-08-10T20:03:32.101Z,44.81
2022-08-10T20:06:46.444Z,45.00
2022-08-10T20:10:00.329Z,45.63
2022-08-10T20:13:24.461Z,45.06
2022-08-10T20:16:37.941Z,45.41
2022-08-10T20:19:55.241Z,45.06
2022-08-10T20:23:08.518Z,45.39
2022-08-10T20:26:21.123Z,45.53
2022-08-10T20:29:57.449Z,46.06
2022-08-10T20:33:15.328Z,45.97
2022-08-10T20:36:28.601Z,46.48
2022-08-10T20:39:45.167Z,46.35
2022-08-10T20:43:03.370Z,46.70
2022-08-10T20:46:17.013Z,46.94
2022-08-10T20:49:34.642Z,47.11
2022-08-10T20:52:43.523Z,46.91
2022-08-10T20:55:55.294Z,47.31
2022-08-10T20:59:37.240Z,47.32
2022-08-10T21:03:20.957Z,47.41
2022-08-10T21:06:57.571Z,47.76
2022-08-10T21:10:19.044Z,47.66
2022-08-10T21:13:46.252Z,47.88
2022-08-10T21:17:16.052Z,48.20
2022-08-10T21:20:47.181Z,48.16
2022-08-10T21:24:01.291Z,48.54
2022-08-10T21:27:22.508Z,48.79
2022-08-10T21:30:34.430Z,48.80
2022-08-10T21:33:45.124Z,48.90
2022-08-10T21:37:00.154Z,49.04
2022-08-10T21:40:35.739Z,49.26
2022-08-10T21:44:08.045Z,49.07
2022-08-10T21:48:04.713Z,49.31
2022-08-10T21:52:01.417Z,49.70
2022-08-10T21:55:56.294Z,49.78
2022-08-10T21:59:18.910Z,49.99
2022-08-10T22:02:50.058Z,50.08
2022-08-10T22:06:15.494Z,49.99
2022-08-10T22:09:42.591Z,50.79
2022-08-10T22:13:08.379Z,50.70
2022-08-10T22:16:46.501Z,50.93
2022-08-10T22:20:19.142Z,50.85
2022-08-10T22:24:16.521Z,51.06
2022-08-10T22:27:48.239Z,51.06
2022-08-10T22:31:32.351Z,51.47
2022-08-10T22:35:22.595Z,51.77
2022-08-10T22:39:03.411Z,51.69
2022-08-10T22:42:57.883Z,51.76
2022-08-10T22:46:31.158Z,51.70
2022-08-10T22:49:34.984Z,52.19
2022-08-10T22:53:03.199Z,52.16
2022-08-10T22:56:28.598Z,52.13
2022-08-10T22:59:36.263Z,52.54
2022-08-10T23:02:43.025Z,52.31
2022-08-10T23:05:58.221Z,52.52
2022-08-10T23:09:09.931Z,52.70
2022-08-10T23:12:21.445Z,53.07
2022-08-10T23:15:47.016Z,52.83
2022-08-10T23:19:10.005Z,52.74
2022-08-10T23:22:18.177Z,53.04
2022-08-10T23:25:32.942Z,53.47
2022-08-10T23:29:05.210Z,53.58
2022-08-10T23:32:11.430Z,53.49
2022-08-10T23:36:30.465Z,53.89
2022-08-10T23:38:57.328Z,53.78
2022-08-10T23:42:23.189Z,54.11
2022-08-10T23:45:53.834Z,53.76
2022-08-10T23:49:03.025Z,54.86
2022-08-10T23:52:15.335Z,54.27
2022-08-10T23:55:26.762Z,54.38
2022-08-10T23:58:44.666Z,54.58
